Time;durP1;ratioP1;P1;durP2;ratioP2;P2;SDS_P1;SDS_P2;PMS_P1;PMS_P2;Temp;Humidity;BMP_temperature;BMP_pressure;BME280_temperature;BME280_humidity;BME280_pressure;Samples;Min_cycle;Max_cycle;Signal;HPM_P1;HPM_P2
2022/02/15 00:01:24;;;;;;;31.87;22.37;;;;;;;;;;4974026;28;20098;-69
2022/02/15 00:03:52;;;;;;;29.90;22.00;;;;;;;;;;4976306;28;20053;-70
2022/02/15 00:06:18;;;;;;;31.07;22.70;;;;;;;;;;4977106;28;20030;-69
2022/02/15 00:08:44;;;;;;;27.20;20.97;;;;;;;;;;4976681;28;20394;-69
2022/02/15 00:11:10;;;;;;;26.43;20.80;;;;;;;;;;4977383;28;20110;-68
2022/02/15 00:13:36;;;;;;;27.00;20.57;;;;;;;;;;4977074;28;20034;-70
2022/02/15 00:16:02;;;;;;;30.43;22.67;;;;;;;;;;4977041;28;20034;-69
2022/02/15 00:18:28;;;;;;;26.33;21.57;;;;;;;;;;4976882;28;20145;-68
2022/02/15 00:20:54;;;;;;;26.40;20.40;;;;;;;;;;4976783;28;20066;-69
2022/02/15 00:23:20;;;;;;;29.57;21.27;;;;;;;;;;4976981;28;20046;-69
2022/02/15 00:25:46;;;;;;;29.50;21.30;;;;;;;;;;4976975;28;20035;-68
2022/02/15 00:28:12;;;;;;;25.83;20.40;;;;;;;;;;4977073;28;20479;-69
2022/02/15 00:30:38;;;;;;;28.40;21.60;;;;;;;;;;4977073;28;20047;-68
2022/02/15 00:33:04;;;;;;;29.30;21.13;;;;;;;;;;4975453;28;20063;-68
2022/02/15 00:35:30;;;;;;;29.90;21.97;;;;;;;;;;4976833;28;20097;-68
2022/02/15 00:37:56;;;;;;;31.93;22.07;;;;;;;;;;4976642;28;20045;-69
2022/02/15 00:40:22;;;;;;;25.40;20.20;;;;;;;;;;4976716;28;20042;-69
2022/02/15 00:42:49;;;;;;;30.73;22.40;;;;;;;;;;4976412;28;20027;-68
2022/02/15 00:45:15;;;;;;;25.43;20.67;;;;;;;;;;4976615;28;20037;-69
2022/02/15 00:47:41;;;;;;;29.40;21.67;;;;;;;;;;4976542;28;20086;-68
2022/02/15 00:50:07;;;;;;;26.40;22.03;;;;;;;;;;4976575;28;20070;-69
2022/02/15 00:52:34;;;;;;;28.97;21.23;;;;;;;;;;4976448;28;20039;-69
2022/02/15 00:55:00;;;;;;;26.00;20.80;;;;;;;;;;4976575;28;20038;-68
2022/02/15 00:57:26;;;;;;;26.97;20.73;;;;;;;;;;4976529;28;20495;-68
2022/02/15 00:59:53;;;;;;;27.07;20.37;;;;;;;;;;4976435;28;20043;-69
2022/02/15 01:02:19;;;;;;;26.33;20.37;;;;;;;;;;4976004;28;20114;-69
2022/02/15 01:04:45;;;;;;;27.73;19.63;;;;;;;;;;4976235;28;20118;-68
2022/02/15 01:07:11;;;;;;;27.17;19.40;;;;;;;;;;4976135;28;20042;-69
2022/02/15 01:09:37;;;;;;;25.03;18.80;;;;;;;;;;4976134;28;20070;-69
2022/02/15 01:12:04;;;;;;;25.77;19.13;;;;;;;;;;4976130;28;20085;-69
2022/02/15 01:14:30;;;;;;;25.33;18.87;;;;;;;;;;4974758;28;20043;-68
2022/02/15 01:16:56;;;;;;;25.37;19.53;;;;;;;;;;4975925;28;20034;-68
2022/02/15 01:19:22;;;;;;;20.77;17.63;;;;;;;;;;4975710;28;20046;-69
2022/02/15 01:21:48;;;;;;;24.17;17.63;;;;;;;;;;4975877;28;20043;-69
2022/02/15 01:24:14;;;;;;;25.90;17.47;;;;;;;;;;4975597;28;20105;-69
2022/02/15 01:26:40;;;;;;;26.03;18.13;;;;;;;;;;4975827;28;20399;-69
2022/02/15 01:29:06;;;;;;;28.53;19.13;;;;;;;;;;4975851;28;20498;-69
2022/02/15 01:31:32;;;;;;;26.30;18.63;;;;;;;;;;4975626;28;20039;-70
2022/02/15 01:33:58;;;;;;;28.13;19.27;;;;;;;;;;4975571;28;20077;-69
2022/02/15 01:36:24;;;;;;;26.47;19.67;;;;;;;;;;4975343;28;20070;-70
2022/02/15 01:38:50;;;;;;;23.27;17.83;;;;;;;;;;4975761;28;20082;-68
2022/02/15 01:41:16;;;;;;;30.60;19.73;;;;;;;;;;4975535;28;20045;-70
2022/02/15 01:43:43;;;;;;;28.53;19.60;;;;;;;;;;4975386;28;20046;-70
2022/02/15 01:46:10;;;;;;;26.17;18.97;;;;;;;;;;4975384;28;20407;-68
2022/02/15 01:48:37;;;;;;;26.20;19.67;;;;;;;;;;4975151;28;20038;-69
2022/02/15 01:51:04;;;;;;;25.27;18.97;;;;;;;;;;4975219;28;20039;-70
2022/02/15 01:53:30;;;;;;;27.83;19.83;;;;;;;;;;4975186;28;20034;-69
2022/02/15 01:55:57;;;;;;;26.13;19.90;;;;;;;;;;4975360;28;20041;-69
2022/02/15 01:58:23;;;;;;;26.87;19.57;;;;;;;;;;4973498;28;20133;-69
2022/02/15 02:00:49;;;;;;;28.43;19.23;;;;;;;;;;4972207;28;20504;-68
2022/02/15 02:03:15;;;;;;;25.83;18.67;;;;;;;;;;4972279;28;20035;-68
2022/02/15 02:05:47;;;;;;;25.57;18.40;;;;;;;;;;4974470;28;20043;-69
2022/02/15 02:08:14;;;;;;;28.15;20.25;;;;;;;;;;4974869;28;20039;-68
2022/02/15 02:10:40;;;;;;;25.60;19.30;;;;;;;;;;4975370;28;20499;-69
2022/02/15 02:13:06;;;;;;;30.40;20.37;;;;;;;;;;4974719;28;20031;-68
2022/02/15 02:15:32;;;;;;;29.13;20.23;;;;;;;;;;4974883;28;20392;-69
2022/02/15 02:17:59;;;;;;;27.43;19.90;;;;;;;;;;4974987;28;20035;-69
2022/02/15 02:20:25;;;;;;;27.50;20.23;;;;;;;;;;4974650;28;20403;-68
2022/02/15 02:22:51;;;;;;;23.83;18.63;;;;;;;;;;4973315;28;20403;-69
2022/02/15 02:25:18;;;;;;;23.37;19.00;;;;;;;;;;4974172;28;20062;-70
2022/02/15 02:27:44;;;;;;;23.17;17.03;;;;;;;;;;4974480;28;20035;-68
2022/02/15 02:30:11;;;;;;;24.20;17.93;;;;;;;;;;4974563;28;20038;-69
2022/02/15 02:32:37;;;;;;;26.40;18.90;;;;;;;;;;4974271;28;20061;-68
2022/02/15 02:35:05;;;;;;;26.27;18.47;;;;;;;;;;4974280;28;20049;-68
2022/02/15 02:37:31;;;;;;;26.40;18.17;;;;;;;;;;4974514;28;20126;-69
2022/02/15 02:39:57;;;;;;;24.07;16.57;;;;;;;;;;4974371;28;20078;-70
2022/02/15 02:42:28;;;;;;;22.23;17.50;;;;;;;;;;4974254;28;20042;-69
2022/02/15 02:44:55;;;;;;;23.00;18.67;;;;;;;;;;4973993;28;20038;-69
2022/02/15 02:47:21;;;;;;;22.43;17.20;;;;;;;;;;4974406;28;20133;-69
2022/02/15 02:49:48;;;;;;;22.53;16.57;;;;;;;;;;4974061;28;20130;-70
2022/02/15 02:52:14;;;;;;;24.80;17.47;;;;;;;;;;4974118;28;20094;-68
2022/02/15 02:54:43;;;;;;;22.57;16.53;;;;;;;;;;4974330;28;20587;-69
2022/02/15 02:57:12;;;;;;;18.63;16.40;;;;;;;;;;4978519;28;20057;-70
2022/02/15 02:59:38;;;;;;;25.73;17.30;;;;;;;;;;4981201;28;20109;-69
2022/02/15 03:02:04;;;;;;;27.17;18.57;;;;;;;;;;4980326;28;20038;-69
2022/02/15 03:04:30;;;;;;;22.87;16.13;;;;;;;;;;4980403;28;20034;-68
2022/02/15 03:06:56;;;;;;;23.87;16.53;;;;;;;;;;4978523;28;20035;-68
2022/02/15 03:09:23;;;;;;;22.60;15.90;;;;;;;;;;4982098;28;20062;-69
2022/02/15 03:11:51;;;;;;;22.63;16.17;;;;;;;;;;4981910;28;20031;-69
2022/02/15 03:14:17;;;;;;;21.70;15.20;;;;;;;;;;4981518;28;20490;-69
2022/02/15 03:16:43;;;;;;;20.33;14.20;;;;;;;;;;4981558;28;20106;-69
2022/02/15 03:19:09;;;;;;;20.23;13.53;;;;;;;;;;4974855;28;20400;-68
2022/02/15 03:21:35;;;;;;;18.03;13.60;;;;;;;;;;4974224;28;20467;-69
2022/02/15 03:24:01;;;;;;;20.80;14.20;;;;;;;;;;4974217;28;20114;-68
2022/02/15 03:26:27;;;;;;;20.93;14.60;;;;;;;;;;4974133;28;20114;-69
2022/02/15 03:28:54;;;;;;;18.57;14.03;;;;;;;;;;4974201;28;20102;-69
2022/02/15 03:31:20;;;;;;;18.33;13.70;;;;;;;;;;4974194;28;20086;-69
2022/02/15 03:33:46;;;;;;;20.37;14.47;;;;;;;;;;4973439;28;20464;-69
2022/02/15 03:36:13;;;;;;;20.80;14.67;;;;;;;;;;4972995;28;20030;-68
2022/02/15 03:38:39;;;;;;;17.37;13.33;;;;;;;;;;4974937;28;20035;-69
2022/02/15 03:43:50;;;;;;;19.57;14.27;;;;;;;;;;4976783;28;20415;-69
2022/02/15 03:46:16;;;;;;;20.37;14.73;;;;;;;;;;4976356;28;20042;-70
2022/02/15 03:48:42;;;;;;;20.80;14.37;;;;;;;;;;4976170;28;20488;-69
2022/02/15 03:51:08;;;;;;;20.20;14.70;;;;;;;;;;4976432;28;20121;-69
2022/02/15 03:53:34;;;;;;;20.20;13.40;;;;;;;;;;4976114;28;20035;-70
2022/02/15 03:56:00;;;;;;;19.67;12.57;;;;;;;;;;4976202;28;20041;-68
2022/02/15 03:58:27;;;;;;;17.33;13.53;;;;;;;;;;4976234;28;20086;-69
2022/02/15 04:00:53;;;;;;;18.87;13.87;;;;;;;;;;4976208;28;20042;-70
2022/02/15 04:03:19;;;;;;;20.27;14.50;;;;;;;;;;4976254;28;20035;-68
2022/02/15 04:05:45;;;;;;;19.43;14.30;;;;;;;;;;4976004;28;20535;-69
2022/02/15 04:08:11;;;;;;;19.43;12.87;;;;;;;;;;4975939;28;20031;-70
2022/02/15 04:10:37;;;;;;;18.33;13.30;;;;;;;;;;4976306;28;20357;-68
2022/02/15 04:13:03;;;;;;;20.47;14.73;;;;;;;;;;4976081;28;20121;-70
2022/02/15 04:15:29;;;;;;;19.53;13.13;;;;;;;;;;4976135;28;20046;-68
2022/02/15 04:17:55;;;;;;;19.00;14.13;;;;;;;;;;4975736;28;20224;-68
2022/02/15 04:20:21;;;;;;;20.17;15.00;;;;;;;;;;4975816;28;20171;-69
2022/02/15 04:22:47;;;;;;;19.13;15.10;;;;;;;;;;4975748;28;20114;-69
2022/02/15 04:25:13;;;;;;;20.10;15.53;;;;;;;;;;4975925;28;20043;-69
2022/02/15 04:27:39;;;;;;;19.80;14.10;;;;;;;;;;4975941;28;20114;-68
2022/02/15 04:30:06;;;;;;;20.70;15.03;;;;;;;;;;4975677;28;20027;-68
2022/02/15 04:32:32;;;;;;;19.47;15.43;;;;;;;;;;4975656;28;20049;-68
2022/02/15 04:34:59;;;;;;;20.17;15.33;;;;;;;;;;4936020;28;1181121;-69
2022/02/15 04:37:25;;;;;;;20.07;15.37;;;;;;;;;;4976383;28;20070;-69
2022/02/15 04:39:51;;;;;;;19.23;15.43;;;;;;;;;;4976265;28;20488;-69
2022/02/15 04:42:17;;;;;;;19.27;15.30;;;;;;;;;;4976543;28;20107;-70
2022/02/15 04:44:43;;;;;;;18.33;14.30;;;;;;;;;;4976704;28;20039;-69
2022/02/15 04:47:09;;;;;;;22.57;14.93;;;;;;;;;;4976620;28;20090;-69
2022/02/15 04:49:36;;;;;;;19.83;14.77;;;;;;;;;;4976498;28;20039;-69
2022/02/15 04:52:03;;;;;;;22.27;16.30;;;;;;;;;;4976477;28;20105;-70
2022/02/15 04:54:29;;;;;;;25.30;15.47;;;;;;;;;;4976697;28;20388;-69
2022/02/15 04:56:55;;;;;;;21.17;16.13;;;;;;;;;;4976415;28;20082;-69
2022/02/15 04:59:21;;;;;;;22.40;16.57;;;;;;;;;;4976358;28;20051;-69
2022/02/15 05:01:47;;;;;;;22.33;16.97;;;;;;;;;;4976247;28;20058;-68
2022/02/15 05:06:58;;;;;;;24.80;16.27;;;;;;;;;;4975948;28;20108;-69
2022/02/15 05:09:25;;;;;;;21.60;16.37;;;;;;;;;;4976302;28;20039;-70
2022/02/15 05:11:51;;;;;;;21.70;16.47;;;;;;;;;;4976201;28;20045;-69
2022/02/15 05:14:17;;;;;;;23.67;17.23;;;;;;;;;;4975997;28;20042;-70
2022/02/15 05:16:44;;;;;;;20.97;16.40;;;;;;;;;;4976464;28;20492;-69
2022/02/15 05:19:10;;;;;;;25.13;17.30;;;;;;;;;;4975597;28;20047;-71
2022/02/15 05:21:36;;;;;;;23.97;17.17;;;;;;;;;;4975742;28;20054;-70
2022/02/15 05:24:02;;;;;;;27.53;18.17;;;;;;;;;;4975875;28;20057;-68
2022/02/15 05:26:28;;;;;;;22.40;17.40;;;;;;;;;;4975712;28;20043;-70
2022/02/15 05:28:54;;;;;;;24.80;16.83;;;;;;;;;;4975748;28;20129;-69
2022/02/15 05:31:20;;;;;;;22.30;16.33;;;;;;;;;;4975522;28;20035;-68
2022/02/15 05:33:46;;;;;;;20.63;16.30;;;;;;;;;;4975244;28;20065;-70
2022/02/15 05:36:12;;;;;;;27.60;17.50;;;;;;;;;;4975765;28;20539;-69
2022/02/15 05:38:39;;;;;;;22.87;17.67;;;;;;;;;;4975758;28;20035;-68
2022/02/15 05:41:05;;;;;;;22.13;16.00;;;;;;;;;;4974190;28;20109;-69
2022/02/15 05:43:31;;;;;;;23.47;17.97;;;;;;;;;;4975711;28;20098;-69
2022/02/15 05:45:57;;;;;;;25.03;18.07;;;;;;;;;;4975303;28;20050;-68
2022/02/15 05:48:23;;;;;;;22.63;16.63;;;;;;;;;;4975448;28;20041;-68
2022/02/15 05:50:52;;;;;;;18.20;15.33;;;;;;;;;;4975144;28;20153;-68
2022/02/15 05:53:26;;;;;;;21.50;16.03;;;;;;;;;;4974922;28;20110;-69
2022/02/15 05:55:53;;;;;;;24.27;16.63;;;;;;;;;;4975276;28;20042;-70
2022/02/15 05:58:19;;;;;;;20.63;15.77;;;;;;;;;;4975244;28;20043;-68
2022/02/15 06:00:45;;;;;;;15.73;13.37;;;;;;;;;;4974412;28;20059;-68
2022/02/15 06:05:56;;;;;;;21.10;13.60;;;;;;;;;;4975273;28;20045;-68
2022/02/15 06:08:22;;;;;;;21.20;13.87;;;;;;;;;;4974864;28;20093;-69
2022/02/15 06:10:48;;;;;;;19.00;13.47;;;;;;;;;;4974752;28;20046;-68
2022/02/15 06:13:14;;;;;;;23.17;13.83;;;;;;;;;;4974884;28;20041;-68
2022/02/15 06:15:41;;;;;;;20.73;15.23;;;;;;;;;;4974877;28;20101;-70
2022/02/15 06:18:07;;;;;;;22.90;14.13;;;;;;;;;;4975070;28;20038;-69
2022/02/15 06:20:33;;;;;;;22.67;14.37;;;;;;;;;;4974918;28;20050;-69
2022/02/15 06:22:59;;;;;;;20.87;14.57;;;;;;;;;;4975773;28;20031;-68
2022/02/15 06:25:25;;;;;;;23.17;14.27;;;;;;;;;;4974823;28;20034;-69
2022/02/15 06:27:52;;;;;;;20.90;14.37;;;;;;;;;;4974339;28;20039;-68
2022/02/15 06:30:18;;;;;;;18.70;13.63;;;;;;;;;;4974681;28;20113;-68
2022/02/15 06:32:44;;;;;;;21.77;15.50;;;;;;;;;;4974517;28;20042;-69
2022/02/15 06:35:11;;;;;;;18.40;14.43;;;;;;;;;;4974248;28;20038;-71
2022/02/15 06:37:44;;;;;;;22.47;15.00;;;;;;;;;;4974382;28;20062;-68
2022/02/15 06:40:12;;;;;;;22.30;16.17;;;;;;;;;;4974373;28;20435;-69
2022/02/15 06:42:38;;;;;;;23.20;15.03;;;;;;;;;;4974130;28;20131;-70
2022/02/15 06:45:05;;;;;;;20.73;16.57;;;;;;;;;;4974142;28;20062;-68
2022/02/15 06:47:31;;;;;;;22.67;16.03;;;;;;;;;;4973383;28;20500;-69
2022/02/15 06:49:57;;;;;;;22.20;16.43;;;;;;;;;;4973112;28;20130;-69
2022/02/15 06:52:23;;;;;;;23.53;17.57;;;;;;;;;;4973246;28;20043;-69
2022/02/15 06:54:49;;;;;;;22.60;16.77;;;;;;;;;;4973265;28;20035;-69
2022/02/15 06:57:16;;;;;;;28.27;17.87;;;;;;;;;;4974306;28;20360;-68
2022/02/15 06:59:42;;;;;;;27.43;18.37;;;;;;;;;;4974382;28;20126;-68
2022/02/15 07:02:08;;;;;;;30.07;18.77;;;;;;;;;;4974103;28;20039;-67
2022/02/15 07:04:34;;;;;;;36.80;20.47;;;;;;;;;;4973673;28;20043;-69
2022/02/15 07:07:00;;;;;;;29.47;17.17;;;;;;;;;;4974044;28;20484;-68
2022/02/15 07:09:26;;;;;;;23.80;16.73;;;;;;;;;;4973819;28;20038;-68
2022/02/15 07:11:52;;;;;;;25.20;17.53;;;;;;;;;;4975274;28;20102;-68
2022/02/15 07:14:18;;;;;;;34.23;19.30;;;;;;;;;;4978055;28;20043;-69
2022/02/15 07:16:44;;;;;;;25.87;17.87;;;;;;;;;;4977132;28;20082;-69
2022/02/15 07:19:11;;;;;;;30.90;22.70;;;;;;;;;;4977386;28;20055;-69
2022/02/15 07:21:37;;;;;;;35.40;25.03;;;;;;;;;;4977931;28;20398;-68
2022/02/15 07:24:04;;;;;;;28.30;21.40;;;;;;;;;;4977872;28;20038;-69
2022/02/15 07:26:30;;;;;;;30.73;21.63;;;;;;;;;;4977812;28;20199;-68
2022/02/15 07:28:56;;;;;;;25.10;18.80;;;;;;;;;;4978169;28;20453;-69
2022/02/15 07:31:22;;;;;;;23.50;17.53;;;;;;;;;;4978033;28;20062;-69
2022/02/15 07:33:49;;;;;;;28.13;18.67;;;;;;;;;;4977855;28;20055;-69
2022/02/15 07:36:15;;;;;;;26.53;18.03;;;;;;;;;;4977907;28;20048;-67
2022/02/15 07:38:41;;;;;;;28.20;16.87;;;;;;;;;;4977737;28;20114;-69
2022/02/15 07:41:07;;;;;;;23.10;17.17;;;;;;;;;;4977897;28;20047;-69
2022/02/15 07:43:33;;;;;;;27.13;16.93;;;;;;;;;;4977792;28;20031;-69
2022/02/15 07:46:00;;;;;;;30.60;17.07;;;;;;;;;;4977591;28;20039;-69
2022/02/15 07:48:26;;;;;;;28.43;18.47;;;;;;;;;;4977778;28;20411;-69
2022/02/15 07:50:52;;;;;;;26.13;17.03;;;;;;;;;;4977627;28;20035;-69
2022/02/15 07:53:18;;;;;;;19.60;13.73;;;;;;;;;;4977416;28;20042;-69
2022/02/15 07:55:44;;;;;;;22.60;13.13;;;;;;;;;;4977420;28;20047;-68
2022/02/15 07:58:10;;;;;;;20.00;12.67;;;;;;;;;;4977492;28;20078;-68
2022/02/15 08:00:37;;;;;;;28.40;14.17;;;;;;;;;;4977438;28;20046;-70
2022/02/15 08:03:03;;;;;;;23.93;15.10;;;;;;;;;;4977582;28;20058;-70
2022/02/15 08:05:29;;;;;;;29.37;17.43;;;;;;;;;;4977500;28;20035;-68
2022/02/15 08:07:57;;;;;;;22.47;16.27;;;;;;;;;;4977395;28;20074;-69
2022/02/15 08:10:24;;;;;;;29.73;18.63;;;;;;;;;;4977162;28;20126;-69
2022/02/15 08:12:55;;;;;;;30.40;19.47;;;;;;;;;;4977145;28;20035;-69
2022/02/15 08:15:22;;;;;;;29.33;17.50;;;;;;;;;;4977016;28;20038;-69
2022/02/15 08:17:48;;;;;;;22.57;14.83;;;;;;;;;;4977037;28;20038;-69
2022/02/15 08:20:14;;;;;;;27.20;15.60;;;;;;;;;;4977023;28;20043;-68
2022/02/15 08:22:40;;;;;;;25.43;15.30;;;;;;;;;;4976990;28;20503;-69
2022/02/15 08:25:07;;;;;;;22.93;14.43;;;;;;;;;;4976512;28;20058;-68
2022/02/15 08:27:33;;;;;;;20.10;13.87;;;;;;;;;;4977035;28;20141;-70
2022/02/15 08:29:59;;;;;;;22.20;13.83;;;;;;;;;;4976872;28;20038;-69
2022/02/15 08:32:25;;;;;;;22.23;14.53;;;;;;;;;;4976792;28;20436;-68
2022/02/15 08:34:51;;;;;;;22.73;15.97;;;;;;;;;;4976700;28;20078;-68
2022/02/15 08:37:18;;;;;;;21.77;14.67;;;;;;;;;;4976918;28;20049;-69
2022/02/15 08:39:44;;;;;;;23.67;15.07;;;;;;;;;;4976800;28;20060;-69
2022/02/15 08:42:11;;;;;;;23.57;15.27;;;;;;;;;;4976250;28;20074;-69
2022/02/15 08:44:37;;;;;;;52.53;27.70;;;;;;;;;;4976705;28;20038;-68
2022/02/15 08:47:08;;;;;;;43.53;24.53;;;;;;;;;;4976779;28;20054;-68
2022/02/15 08:49:34;;;;;;;32.57;19.83;;;;;;;;;;4976397;28;20038;-69
2022/02/15 08:52:01;;;;;;;30.83;19.03;;;;;;;;;;4976286;28;20039;-69
2022/02/15 08:54:28;;;;;;;25.00;17.23;;;;;;;;;;4976375;28;20065;-70
2022/02/15 08:56:54;;;;;;;24.53;18.07;;;;;;;;;;4976597;28;20075;-69
2022/02/15 08:59:20;;;;;;;23.40;17.77;;;;;;;;;;4976446;28;20035;-70
2022/02/15 09:01:50;;;;;;;34.00;22.47;;;;;;;;;;4976492;28;20081;-68
2022/02/15 09:04:16;;;;;;;33.77;22.83;;;;;;;;;;4976549;28;20098;-69
2022/02/15 09:06:43;;;;;;;30.07;20.93;;;;;;;;;;4976434;28;20063;-69
2022/02/15 09:09:10;;;;;;;25.17;15.33;;;;;;;;;;4976163;28;20039;-68
2022/02/15 09:11:36;;;;;;;23.00;15.03;;;;;;;;;;4976356;28;20077;-69
2022/02/15 09:14:02;;;;;;;28.53;15.37;;;;;;;;;;4976150;28;20039;-69
2022/02/15 09:16:29;;;;;;;22.30;14.27;;;;;;;;;;4976002;28;20030;-69
2022/02/15 09:18:55;;;;;;;22.40;13.33;;;;;;;;;;4975589;28;20031;-69
2022/02/15 09:21:21;;;;;;;19.70;13.87;;;;;;;;;;4975995;28;20066;-69
2022/02/15 09:23:47;;;;;;;17.53;13.23;;;;;;;;;;4975930;28;20052;-70
2022/02/15 09:26:13;;;;;;;19.23;13.50;;;;;;;;;;4976032;28;20045;-70
2022/02/15 09:28:39;;;;;;;22.13;13.70;;;;;;;;;;4975864;28;20042;-69
2022/02/15 09:31:05;;;;;;;20.23;13.57;;;;;;;;;;4975652;28;20043;-69
2022/02/15 09:33:31;;;;;;;21.07;13.03;;;;;;;;;;4975781;28;20508;-68
2022/02/15 09:35:58;;;;;;;27.43;14.30;;;;;;;;;;4974834;28;20066;-69
2022/02/15 09:38:24;;;;;;;22.17;14.87;;;;;;;;;;4975552;28;20042;-68
2022/02/15 09:40:50;;;;;;;26.23;14.47;;;;;;;;;;4975751;28;20050;-69
2022/02/15 09:43:17;;;;;;;20.17;15.77;;;;;;;;;;4975555;28;20039;-68
2022/02/15 09:45:45;;;;;;;26.30;15.37;;;;;;;;;;4975513;28;20047;-68
2022/02/15 09:48:13;;;;;;;25.77;14.23;;;;;;;;;;4975425;28;20034;-69
2022/02/15 09:50:40;;;;;;;22.10;13.77;;;;;;;;;;4975549;28;20502;-69
2022/02/15 09:53:06;;;;;;;28.07;14.80;;;;;;;;;;4975726;28;20035;-69
2022/02/15 09:55:32;;;;;;;26.37;16.10;;;;;;;;;;4975536;28;20043;-69
2022/02/15 09:57:58;;;;;;;25.60;14.77;;;;;;;;;;4979429;28;20037;-68
2022/02/15 10:00:25;;;;;;;21.03;14.37;;;;;;;;;;4983134;28;20042;-68
2022/02/15 10:02:51;;;;;;;18.60;13.70;;;;;;;;;;4984562;28;20390;-68
2022/02/15 10:05:18;;;;;;;23.43;13.20;;;;;;;;;;4983072;28;20049;-69
2022/02/15 10:07:45;;;;;;;25.37;13.63;;;;;;;;;;4980472;28;20479;-69
2022/02/15 10:10:11;;;;;;;21.37;14.03;;;;;;;;;;4983226;28;20492;-69
2022/02/15 10:12:38;;;;;;;20.77;13.30;;;;;;;;;;4980989;28;20042;-69
2022/02/15 10:15:08;;;;;;;19.63;11.93;;;;;;;;;;4981786;28;20114;-70
2022/02/15 10:17:37;;;;;;;17.63;12.03;;;;;;;;;;4982823;28;20031;-69
2022/02/15 10:20:03;;;;;;;22.37;12.73;;;;;;;;;;4975096;28;20081;-69
2022/02/15 10:22:29;;;;;;;16.43;11.87;;;;;;;;;;4975687;28;20035;-69
2022/02/15 10:24:58;;;;;;;23.40;13.40;;;;;;;;;;4975082;28;20118;-70
2022/02/15 10:27:28;;;;;;;26.13;13.33;;;;;;;;;;4974792;28;20444;-69
2022/02/15 10:29:55;;;;;;;19.70;11.70;;;;;;;;;;4975096;28;20046;-69
2022/02/15 10:32:22;;;;;;;21.23;13.07;;;;;;;;;;4974621;28;20110;-68
2022/02/15 10:34:58;;;;;;;18.70;12.07;;;;;;;;;;4974681;28;20098;-69
2022/02/15 10:37:27;;;;;;;19.83;10.20;;;;;;;;;;4974558;28;20058;-69
2022/02/15 10:39:56;;;;;;;16.63;10.90;;;;;;;;;;4974332;28;20051;-69
2022/02/15 10:42:22;;;;;;;24.80;12.10;;;;;;;;;;4974898;28;20034;-69
2022/02/15 10:44:52;;;;;;;17.43;12.03;;;;;;;;;;4974635;28;20484;-69
2022/02/15 10:47:19;;;;;;;17.97;11.70;;;;;;;;;;4972984;28;20059;-69
2022/02/15 10:49:46;;;;;;;16.73;10.67;;;;;;;;;;4974822;28;20031;-69
2022/02/15 10:52:13;;;;;;;21.77;11.73;;;;;;;;;;4974651;28;20027;-69
2022/02/15 10:54:39;;;;;;;20.27;11.83;;;;;;;;;;4974527;28;20039;-69
2022/02/15 10:57:05;;;;;;;21.03;11.80;;;;;;;;;;4974507;28;20105;-69
2022/02/15 10:59:33;;;;;;;17.93;12.30;;;;;;;;;;4974089;28;20492;-68
2022/02/15 11:02:00;;;;;;;19.23;10.80;;;;;;;;;;4974582;28;20086;-69
2022/02/15 11:04:28;;;;;;;17.33;11.13;;;;;;;;;;4974333;28;20122;-69
2022/02/15 11:06:55;;;;;;;17.53;11.00;;;;;;;;;;4974079;28;20031;-69
2022/02/15 11:09:24;;;;;;;21.00;11.47;;;;;;;;;;4974717;28;20031;-69
2022/02/15 11:12:20;;;;;;;18.30;10.60;;;;;;;;;;4974325;28;20038;-69
2022/02/15 11:14:52;;;;;;;21.30;11.47;;;;;;;;;;4965598;28;20504;-69
2022/02/15 11:17:18;;;;;;;;;;;;;;;;;;4974578;28;20034;-70
2022/02/15 11:19:45;;;;;;;18.50;8.53;;;;;;;;;;4974273;28;20294;-69
2022/02/15 11:22:21;;;;;;;19.83;8.50;;;;;;;;;;4974330;28;20440;-69
2022/02/15 11:24:47;;;;;;;96.27;56.47;;;;;;;;;;4974132;28;20122;-69
2022/02/15 11:27:22;;;;;;;26.37;15.90;;;;;;;;;;4974145;28;20093;-68
2022/02/15 11:29:52;;;;;;;18.13;10.70;;;;;;;;;;4974348;28;20596;-69
2022/02/15 11:32:22;;;;;;;14.27;10.57;;;;;;;;;;4974345;28;20050;-70
2022/02/15 11:34:48;;;;;;;17.60;7.87;;;;;;;;;;4973863;28;20054;-68
2022/02/15 11:37:19;;;;;;;19.00;10.00;;;;;;;;;;4974046;28;20033;-70
2022/02/15 11:39:56;;;;;;;20.90;10.07;;;;;;;;;;4973821;28;20407;-69
2022/02/15 11:42:22;;;;;;;21.03;9.73;;;;;;;;;;4973922;28;20035;-68
2022/02/15 11:44:48;;;;;;;27.20;14.23;;;;;;;;;;4973950;28;20390;-68
2022/02/15 11:47:14;;;;;;;17.23;8.37;;;;;;;;;;4974168;28;20027;-68
2022/02/15 11:50:00;;;;;;;12.30;6.23;;;;;;;;;;4973977;28;20041;-70
2022/02/15 11:52:27;;;;;;;14.20;7.03;;;;;;;;;;4974001;28;20045;-69
2022/02/15 11:54:54;;;;;;;14.23;5.70;;;;;;;;;;4973344;28;20439;-68
2022/02/15 11:57:20;;;;;;;16.03;6.27;;;;;;;;;;4973809;28;20039;-69
2022/02/15 11:59:51;;;;;;;9.67;4.87;;;;;;;;;;4975701;28;20046;-68
2022/02/15 12:02:17;;;;;;;14.73;5.33;;;;;;;;;;4977257;28;20086;-70
2022/02/15 12:04:53;;;;;;;13.90;5.90;;;;;;;;;;4977187;28;20049;-69
2022/02/15 12:07:24;;;;;;;11.67;5.97;;;;;;;;;;4977175;28;20026;-68
2022/02/15 12:09:52;;;;;;;17.83;7.20;;;;;;;;;;4977770;28;20066;-68
2022/02/15 12:12:19;;;;;;;18.10;7.50;;;;;;;;;;4977289;28;20027;-68
2022/02/15 12:14:53;;;;;;;19.03;8.63;;;;;;;;;;4976793;28;20496;-69
2022/02/15 12:17:26;;;;;;;15.27;8.43;;;;;;;;;;4976948;28;20038;-69
2022/02/15 12:19:59;;;;;;;18.77;9.18;;;;;;;;;;4976774;28;20047;-69
2022/02/15 12:22:26;;;;;;;19.23;8.17;;;;;;;;;;4977090;28;20039;-70
2022/02/15 12:24:53;;;;;;;16.37;9.37;;;;;;;;;;4976731;28;20043;-69
2022/02/15 12:27:19;;;;;;;20.50;10.20;;;;;;;;;;4977053;28;20039;-69
2022/02/15 12:29:49;;;;;;;17.27;8.97;;;;;;;;;;4976650;28;20487;-68
2022/02/15 12:32:20;;;;;;;17.27;9.80;;;;;;;;;;4976761;28;20471;-69
2022/02/15 12:34:46;;;;;;;13.77;9.63;;;;;;;;;;4976563;28;20058;-69
2022/02/15 12:37:17;;;;;;;19.17;14.50;;;;;;;;;;4976615;28;20046;-68
2022/02/15 12:39:43;;;;;;;16.37;11.77;;;;;;;;;;4976640;28;20051;-69
2022/02/15 12:42:10;;;;;;;22.33;12.60;;;;;;;;;;4976016;28;20093;-70
2022/02/15 12:44:37;;;;;;;27.63;14.40;;;;;;;;;;4976019;28;20042;-70
2022/02/15 12:47:05;;;;;;;21.17;12.60;;;;;;;;;;4975903;28;20042;-68
2022/02/15 12:49:31;;;;;;;28.60;12.40;;;;;;;;;;4976305;28;20049;-68
2022/02/15 12:51:57;;;;;;;22.93;13.47;;;;;;;;;;4976185;28;20371;-70
2022/02/15 12:54:23;;;;;;;23.20;12.10;;;;;;;;;;4974976;28;20038;-68
2022/02/15 12:56:49;;;;;;;18.20;8.00;;;;;;;;;;4975336;28;20105;-69
2022/02/15 12:59:23;;;;;;;17.10;6.83;;;;;;;;;;4974924;28;20098;-68
2022/02/15 13:01:57;;;;;;;13.97;6.03;;;;;;;;;;4971966;28;20093;-71
2022/02/15 13:04:23;;;;;;;9.93;4.43;;;;;;;;;;4971929;28;20038;-71
2022/02/15 13:06:52;;;;;;;10.40;4.30;;;;;;;;;;4972993;28;20431;-70
2022/02/15 13:09:18;;;;;;;7.67;4.07;;;;;;;;;;4974811;28;20054;-70
2022/02/15 13:11:44;;;;;;;11.67;4.23;;;;;;;;;;4975448;28;20118;-71
2022/02/15 13:14:10;;;;;;;12.53;6.97;;;;;;;;;;4975197;28;20117;-69
2022/02/15 13:16:39;;;;;;;22.73;10.20;;;;;;;;;;4975146;28;20023;-70
2022/02/15 13:19:05;;;;;;;22.63;12.27;;;;;;;;;;4975202;28;20114;-69
2022/02/15 13:21:34;;;;;;;15.40;6.37;;;;;;;;;;4975687;28;20484;-70
2022/02/15 13:24:01;;;;;;;7.47;3.90;;;;;;;;;;4972940;28;20126;-70
2022/02/15 13:26:37;;;;;;;5.00;3.30;;;;;;;;;;4972859;28;20042;-69
2022/02/15 13:29:04;;;;;;;34.20;6.00;;;;;;;;;;4975080;28;20093;-70
2022/02/15 13:31:40;;;;;;;75.17;11.53;;;;;;;;;;4975460;28;20050;-69
2022/02/15 13:34:06;;;;;;;18.77;6.30;;;;;;;;;;4975334;28;20053;-69
2022/02/15 13:36:33;;;;;;;10.63;5.50;;;;;;;;;;4975433;28;20042;-70
2022/02/15 13:39:00;;;;;;;15.30;7.43;;;;;;;;;;4975435;28;20031;-71
2022/02/15 13:41:26;;;;;;;13.87;7.47;;;;;;;;;;4974972;28;20496;-70
2022/02/15 13:44:02;;;;;;;9.93;5.33;;;;;;;;;;4975451;28;20031;-71
2022/02/15 13:46:37;;;;;;;10.90;4.60;;;;;;;;;;4975562;28;20443;-70
2022/02/15 13:49:03;;;;;;;7.77;4.50;;;;;;;;;;4975212;28;20065;-70
2022/02/15 13:51:30;;;;;;;7.40;3.90;;;;;;;;;;4975035;28;20093;-70
2022/02/15 13:54:04;;;;;;;7.10;3.47;;;;;;;;;;4975067;28;20118;-70
2022/02/15 13:56:30;;;;;;;5.97;3.63;;;;;;;;;;4975392;28;20035;-70
2022/02/15 13:58:56;;;;;;;11.33;4.43;;;;;;;;;;4975080;28;20061;-71
2022/02/15 14:01:22;;;;;;;8.33;3.23;;;;;;;;;;4974352;28;20098;-70
2022/02/15 14:03:51;;;;;;;12.67;3.73;;;;;;;;;;4969353;28;20039;-70
2022/02/15 14:06:19;;;;;;;5.87;3.40;;;;;;;;;;4974911;28;20049;-68
2022/02/15 14:08:45;;;;;;;12.67;4.30;;;;;;;;;;4975100;28;20034;-68
2022/02/15 14:11:11;;;;;;;7.10;3.43;;;;;;;;;;4975129;28;20043;-70
2022/02/15 14:13:37;;;;;;;8.33;4.90;;;;;;;;;;4975026;28;20479;-70
2022/02/15 14:16:03;;;;;;;7.10;4.73;;;;;;;;;;4974750;28;20464;-69
2022/02/15 14:18:29;;;;;;;9.70;5.03;;;;;;;;;;4974639;28;20034;-71
2022/02/15 14:20:55;;;;;;;11.27;5.10;;;;;;;;;;4974484;28;20046;-69
2022/02/15 14:23:21;;;;;;;12.37;6.33;;;;;;;;;;4974685;28;20641;-72
2022/02/15 14:25:48;;;;;;;11.40;5.87;;;;;;;;;;4974520;28;20411;-72
2022/02/15 14:28:14;;;;;;;8.80;5.57;;;;;;;;;;4974674;28;20038;-71